Central'Nyj Rudnik, Russia
Current Conditions -  °F | °C
As of 10:30 PM on Saturday 20 Dec 2014 (Local Time) from UNEE Reporting Station
Haze Haze  
Wind Chill: -11°   Ceiling: Unl
Heat Index:   Visibility: 2.5mi
Dew Point:   Wind: 7mph
Humidity: 100%   Direction: 120°ESE
Pressure: 30.33"   Gusts: NA
Location:  55.22°N, 87.65°E
Report Text: UNEE 201530Z 12003MPS 4100 BR SKC M17/M17 Q1027 NOSIG RMKQFE747 23821045
Loading
Personal Weather Stations






























Interactive Weather Map New forecast layout! Learn more

10-Day Weather Forecast

Advertisements
Track Severe Weather on mobile